createdAt,value
2023-05-19T00:01:48.643Z,8.06
2023-05-19T00:04:15.800Z,8.09
2023-05-19T00:06:43.030Z,7.90
2023-05-19T00:09:10.839Z,8.04
2023-05-19T00:11:40.345Z,7.88
2023-05-19T00:14:09.875Z,7.91
2023-05-19T00:16:39.544Z,7.93
2023-05-19T00:19:10.659Z,7.65
2023-05-19T00:21:38.888Z,7.72
2023-05-19T00:24:06.842Z,7.50
2023-05-19T00:26:34.150Z,7.57
2023-05-19T00:29:01.348Z,7.67
2023-05-19T00:31:28.327Z,7.40
2023-05-19T00:33:55.166Z,7.31
2023-05-19T00:36:22.043Z,7.52
2023-05-19T00:38:49.030Z,7.24
2023-05-19T00:41:15.835Z,7.20
2023-05-19T00:43:42.869Z,7.22
2023-05-19T00:46:11.255Z,7.35
2023-05-19T00:48:38.136Z,7.28
2023-05-19T00:51:06.903Z,7.14
2023-05-19T00:53:35.077Z,7.14
2023-05-19T00:56:03.495Z,6.94
2023-05-19T00:58:34.297Z,6.96
2023-05-19T01:01:05.306Z,6.97
2023-05-19T01:03:37.400Z,6.95
2023-05-19T01:06:08.051Z,7.18
2023-05-19T01:08:37.656Z,6.95
2023-05-19T01:11:08.796Z,6.91
2023-05-19T01:13:36.815Z,6.89
2023-05-19T01:16:40.670Z,6.89
2023-05-19T01:19:41.813Z,7.02
2023-05-19T01:22:47.757Z,7.00
2023-05-19T01:25:45.244Z,6.90
2023-05-19T01:28:39.746Z,7.00
2023-05-19T01:31:07.665Z,6.85
2023-05-19T01:33:35.158Z,6.86
2023-05-19T01:36:03.864Z,6.83
2023-05-19T01:38:34.018Z,6.99
2023-05-19T01:41:03.076Z,6.90
2023-05-19T01:43:30.083Z,6.77
2023-05-19T01:45:59.208Z,6.76
2023-05-19T01:48:27.251Z,6.81
2023-05-19T01:50:57.508Z,6.73
2023-05-19T01:53:25.178Z,6.62
2023-05-19T01:55:57.645Z,6.70
2023-05-19T01:58:46.422Z,6.83
2023-05-19T02:01:48.774Z,6.75
2023-05-19T02:04:41.508Z,6.76
2023-05-19T02:07:11.897Z,6.78
2023-05-19T02:09:44.905Z,6.57
2023-05-19T02:12:29.246Z,6.40
2023-05-19T02:15:07.479Z,6.68
2023-05-19T02:17:54.913Z,6.61
2023-05-19T02:20:22.620Z,6.25
2023-05-19T02:22:49.803Z,6.38
2023-05-19T02:25:16.955Z,6.16
2023-05-19T02:27:43.866Z,6.08
2023-05-19T02:30:12.079Z,6.02
2023-05-19T02:32:40.005Z,6.13
2023-05-19T02:35:10.000Z,5.99
2023-05-19T02:37:36.793Z,5.99
2023-05-19T02:40:11.908Z,5.99
2023-05-19T02:42:41.963Z,6.11
2023-05-19T02:45:13.098Z,5.99
2023-05-19T02:47:43.339Z,5.98
2023-05-19T02:50:10.533Z,6.17
2023-05-19T02:52:37.325Z,5.89
2023-05-19T02:55:04.540Z,6.13
2023-05-19T02:57:33.613Z,5.76
2023-05-19T03:00:01.568Z,5.77
2023-05-19T03:02:29.872Z,5.66
2023-05-19T03:04:56.944Z,5.83
2023-05-19T03:07:26.717Z,5.89
2023-05-19T03:09:53.874Z,5.71
2023-05-19T03:12:22.639Z,5.73
2023-05-19T03:14:50.181Z,5.71
2023-05-19T03:17:17.501Z,5.54
2023-05-19T03:19:45.460Z,5.71
2023-05-19T03:22:14.574Z,5.77
2023-05-19T03:24:42.294Z,5.64
2023-05-19T03:27:10.158Z,5.58
2023-05-19T03:29:39.934Z,5.68
2023-05-19T03:32:09.211Z,5.44
2023-05-19T03:34:36.038Z,5.47
2023-05-19T03:37:02.828Z,5.42
2023-05-19T03:39:29.702Z,5.55
2023-05-19T03:41:56.712Z,5.41
2023-05-19T03:47:09.744Z,5.41
2023-05-19T03:49:37.245Z,5.57
2023-05-19T03:52:05.271Z,5.45
2023-05-19T03:54:32.081Z,5.42
2023-05-19T03:56:59.382Z,5.52
2023-05-19T03:59:26.132Z,5.58
2023-05-19T04:01:53.521Z,5.61
2023-05-19T04:04:22.171Z,5.62
2023-05-19T04:06:49.243Z,5.73
2023-05-19T04:09:16.980Z,5.67
2023-05-19T04:11:43.852Z,5.80
2023-05-19T04:14:10.721Z,5.76
2023-05-19T04:16:38.062Z,5.84
2023-05-19T04:19:05.229Z,5.88
2023-05-19T04:21:32.009Z,5.93
2023-05-19T04:24:01.315Z,5.97
2023-05-19T04:26:30.945Z,5.95
2023-05-19T04:28:57.756Z,6.18
2023-05-19T04:31:27.182Z,6.13
2023-05-19T04:33:54.392Z,6.34
2023-05-19T04:36:22.147Z,6.30
2023-05-19T04:38:51.297Z,6.42
2023-05-19T04:41:18.816Z,6.54
2023-05-19T04:43:46.259Z,6.49
2023-05-19T04:46:14.171Z,6.66
2023-05-19T04:48:43.042Z,6.56
2023-05-19T04:51:10.555Z,6.85
2023-05-19T04:53:37.239Z,6.88
2023-05-19T04:56:05.357Z,6.95
2023-05-19T04:58:32.153Z,7.09
2023-05-19T05:00:58.836Z,7.13
2023-05-19T05:03:26.713Z,7.16
2023-05-19T05:05:53.861Z,7.31
2023-05-19T05:08:23.699Z,7.40
2023-05-19T05:10:52.258Z,7.46
2023-05-19T05:13:21.769Z,7.56
2023-05-19T05:15:49.262Z,7.55
2023-05-19T05:18:16.711Z,7.64
2023-05-19T05:20:45.121Z,7.79
2023-05-19T05:23:16.659Z,7.90
2023-05-19T05:25:44.577Z,8.12
2023-05-19T05:28:11.922Z,8.16
2023-05-19T05:30:38.697Z,8.31
2023-05-19T05:33:10.033Z,8.27
2023-05-19T05:35:37.234Z,8.47
2023-05-19T05:38:05.479Z,8.76
2023-05-19T05:40:34.276Z,8.80
2023-05-19T05:43:03.508Z,8.86
2023-05-19T05:45:31.159Z,8.92
2023-05-19T05:47:59.632Z,9.20
2023-05-19T05:50:28.544Z,9.32
2023-05-19T05:53:02.345Z,9.42
2023-05-19T05:55:55.850Z,9.56
2023-05-19T06:01:05.101Z,10.01
2023-05-19T06:03:45.873Z,9.94
2023-05-19T06:06:20.001Z,10.03
2023-05-19T06:08:46.556Z,10.31
2023-05-19T06:11:13.151Z,10.38
2023-05-19T06:13:41.394Z,10.36
2023-05-19T06:16:08.191Z,10.46
2023-05-19T06:18:34.813Z,10.60
2023-05-19T06:21:08.972Z,10.40
2023-05-19T06:23:36.001Z,10.78
2023-05-19T06:26:02.646Z,10.92
2023-05-19T06:28:29.167Z,11.01
2023-05-19T06:30:55.783Z,11.09
2023-05-19T06:33:22.318Z,11.11
2023-05-19T06:35:48.884Z,11.10
2023-05-19T06:38:15.453Z,11.26
2023-05-19T06:40:42.014Z,11.34
2023-05-19T06:43:08.568Z,11.43
2023-05-19T06:45:35.271Z,11.51
2023-05-19T06:48:02.082Z,11.45
2023-05-19T06:50:28.663Z,11.51
2023-05-19T06:52:55.221Z,11.64
2023-05-19T06:55:21.950Z,11.52
2023-05-19T06:57:48.610Z,11.51
2023-05-19T07:00:18.805Z,11.59
2023-05-19T07:02:46.625Z,11.58
2023-05-19T07:05:13.749Z,11.63
2023-05-19T07:07:40.499Z,11.56
2023-05-19T07:10:07.931Z,11.62
2023-05-19T07:12:34.614Z,11.75
2023-05-19T07:15:01.321Z,11.82
2023-05-19T07:17:28.084Z,11.97
2023-05-19T07:19:54.813Z,12.04
2023-05-19T07:22:22.444Z,12.08
2023-05-19T07:24:49.259Z,12.10
2023-05-19T07:27:16.057Z,12.10
2023-05-19T07:29:42.740Z,12.13
2023-05-19T07:32:09.597Z,12.26
2023-05-19T07:34:36.890Z,12.27
2023-05-19T07:37:03.735Z,12.41
2023-05-19T07:39:32.486Z,12.32
2023-05-19T07:41:59.501Z,12.34
2023-05-19T07:44:27.347Z,12.45
2023-05-19T07:46:54.699Z,12.43
2023-05-19T07:49:21.423Z,12.62
2023-05-19T07:51:48.126Z,12.75
2023-05-19T07:54:14.913Z,12.79
2023-05-19T07:56:41.650Z,12.80
2023-05-19T07:59:08.474Z,12.89
2023-05-19T08:01:35.240Z,13.00
2023-05-19T08:04:02.317Z,13.04
2023-05-19T08:06:32.169Z,12.96
2023-05-19T08:08:58.925Z,13.01
2023-05-19T08:11:26.130Z,13.04
2023-05-19T08:13:54.283Z,13.04
2023-05-19T08:16:21.547Z,13.25
2023-05-19T08:18:48.508Z,13.23
2023-05-19T08:21:15.143Z,13.30
2023-05-19T08:23:41.800Z,13.39
2023-05-19T08:26:09.640Z,13.44
2023-05-19T08:28:36.370Z,13.54
2023-05-19T08:31:04.245Z,13.69
2023-05-19T08:33:33.561Z,13.79
2023-05-19T08:36:00.370Z,13.92
2023-05-19T08:38:27.246Z,13.99
2023-05-19T08:40:54.782Z,14.03
2023-05-19T08:43:21.816Z,14.33
2023-05-19T08:45:48.617Z,14.48
2023-05-19T08:48:32.173Z,14.57
2023-05-19T09:01:17.280Z,15.31
2023-05-19T09:04:18.368Z,15.51
2023-05-19T09:06:52.623Z,15.57
2023-05-19T09:09:32.043Z,15.54
2023-05-19T09:12:16.214Z,15.63
2023-05-19T09:18:14.280Z,16.18
2023-05-19T09:20:42.840Z,16.35
2023-05-19T09:23:14.179Z,16.13
2023-05-19T09:25:51.120Z,16.32
2023-05-19T09:28:33.314Z,16.55
2023-05-19T09:31:08.497Z,16.66
2023-05-19T09:33:37.103Z,16.82
2023-05-19T09:36:06.280Z,16.95
2023-05-19T09:38:33.167Z,17.09
2023-05-19T09:41:00.944Z,17.25
2023-05-19T09:43:33.655Z,17.38
2023-05-19T09:46:04.488Z,17.49
2023-05-19T09:48:31.118Z,17.45
2023-05-19T09:50:58.325Z,17.56
2023-05-19T09:53:27.968Z,17.42
2023-05-19T09:55:58.121Z,17.62
2023-05-19T09:58:26.550Z,17.92
2023-05-19T10:00:57.242Z,18.05
2023-05-19T10:03:25.415Z,18.05
2023-05-19T10:05:53.555Z,18.27
2023-05-19T10:08:20.391Z,18.39
2023-05-19T10:10:47.924Z,18.55
2023-05-19T10:13:16.633Z,18.65
2023-05-19T10:15:57.433Z,18.94
2023-05-19T10:18:26.903Z,19.10
2023-05-19T10:20:54.948Z,19.24
2023-05-19T10:23:23.498Z,19.07
2023-05-19T10:25:54.943Z,19.10
2023-05-19T10:28:25.679Z,19.28
2023-05-19T10:30:56.717Z,19.53
2023-05-19T10:33:37.382Z,19.56
2023-05-19T10:36:46.109Z,19.74
2023-05-19T10:39:22.112Z,19.79
2023-05-19T10:42:01.113Z,19.97
2023-05-19T10:45:13.619Z,20.11
2023-05-19T10:47:44.393Z,20.37
2023-05-19T10:50:11.799Z,20.58
2023-05-19T10:52:40.026Z,20.68
2023-05-19T10:55:16.087Z,20.74
2023-05-19T10:57:54.263Z,20.70
2023-05-19T11:00:28.222Z,20.59
2023-05-19T11:03:12.029Z,20.86
2023-05-19T11:05:38.645Z,21.11
2023-05-19T11:08:08.254Z,21.34
2023-05-19T11:10:34.838Z,21.48
2023-05-19T11:13:01.574Z,21.37
2023-05-19T11:15:28.979Z,21.71
2023-05-19T11:17:56.024Z,21.88
2023-05-19T11:20:22.686Z,21.98
2023-05-19T11:23:11.271Z,22.22
2023-05-19T11:25:41.853Z,22.27
2023-05-19T11:28:10.476Z,22.44
2023-05-19T11:30:37.568Z,22.42
2023-05-19T11:33:05.270Z,22.03
2023-05-19T11:35:36.029Z,21.93
2023-05-19T11:38:03.646Z,22.05
2023-05-19T11:40:33.647Z,22.21
2023-05-19T11:43:01.959Z,22.32
2023-05-19T11:45:31.599Z,22.47
2023-05-19T11:48:02.701Z,22.51
2023-05-19T11:50:31.412Z,22.51
2023-05-19T11:53:00.252Z,22.62
2023-05-19T11:55:27.271Z,22.76
2023-05-19T11:58:05.592Z,23.03
2023-05-19T12:00:40.078Z,22.60
2023-05-19T12:03:07.751Z,22.36
2023-05-19T12:05:41.828Z,22.58
2023-05-19T12:08:09.847Z,22.82
2023-05-19T12:10:38.367Z,22.28
2023-05-19T12:13:08.307Z,22.52
2023-05-19T12:15:35.575Z,22.65
2023-05-19T12:18:03.254Z,22.79
2023-05-19T12:20:35.976Z,22.82
2023-05-19T12:23:03.845Z,22.91
2023-05-19T12:25:31.846Z,23.02
2023-05-19T12:28:00.382Z,23.13
2023-05-19T12:30:29.383Z,23.12
2023-05-19T12:32:58.278Z,23.08
2023-05-19T12:35:33.705Z,22.95
2023-05-19T12:38:09.497Z,23.05
2023-05-19T12:40:37.965Z,23.08
2023-05-19T12:43:05.583Z,23.16
2023-05-19T12:45:42.706Z,22.99
2023-05-19T12:48:12.809Z,23.27
2023-05-19T12:50:39.639Z,23.23
2023-05-19T12:53:10.714Z,23.56
2023-05-19T12:55:44.401Z,23.69
2023-05-19T12:58:12.795Z,23.88
2023-05-19T13:00:45.612Z,23.90
2023-05-19T13:03:20.454Z,23.86
2023-05-19T13:05:49.137Z,23.82
2023-05-19T13:08:18.280Z,23.78
2023-05-19T13:10:46.425Z,23.87
2023-05-19T13:13:13.485Z,23.87
2023-05-19T13:15:45.005Z,23.58
2023-05-19T13:18:13.794Z,23.76
2023-05-19T13:20:42.161Z,23.86
2023-05-19T13:23:11.037Z,23.67
2023-05-19T13:25:37.978Z,23.74
2023-05-19T13:28:05.999Z,23.44
2023-05-19T13:30:34.614Z,23.12
2023-05-19T13:33:02.204Z,23.05
2023-05-19T13:35:29.027Z,22.92
2023-05-19T13:37:55.760Z,22.92
2023-05-19T13:40:24.085Z,22.99
2023-05-19T13:42:51.029Z,23.02
2023-05-19T13:45:18.464Z,23.12
2023-05-19T13:47:45.108Z,23.22
2023-05-19T13:50:12.409Z,23.36
2023-05-19T13:52:39.211Z,23.39
2023-05-19T13:55:07.388Z,23.48
2023-05-19T13:57:34.224Z,23.70
2023-05-19T14:00:03.843Z,23.72
2023-05-19T14:02:31.068Z,23.74
2023-05-19T14:04:57.961Z,23.72
2023-05-19T14:07:25.756Z,23.66
2023-05-19T14:09:52.801Z,23.62
2023-05-19T14:12:23.167Z,23.60
2023-05-19T14:14:52.299Z,23.51
2023-05-19T14:17:18.951Z,23.39
2023-05-19T14:19:45.564Z,23.37
2023-05-19T14:22:13.543Z,23.37
2023-05-19T14:24:40.195Z,23.42
2023-05-19T14:27:06.814Z,23.44
2023-05-19T14:29:34.083Z,23.49
2023-05-19T14:32:00.926Z,23.52
2023-05-19T14:34:27.697Z,23.57
2023-05-19T14:36:54.298Z,23.56
2023-05-19T14:39:21.177Z,23.50
2023-05-19T14:41:49.518Z,23.45
2023-05-19T14:44:16.160Z,23.53
2023-05-19T14:46:42.916Z,23.66
2023-05-19T14:49:09.612Z,23.65
2023-05-19T14:51:36.307Z,23.55
2023-05-19T14:54:02.990Z,23.40
2023-05-19T14:56:29.740Z,23.14
2023-05-19T14:58:56.639Z,23.03
2023-05-19T15:01:23.433Z,22.83
2023-05-19T15:03:50.267Z,22.60
2023-05-19T15:06:16.942Z,22.46
2023-05-19T15:08:43.657Z,22.29
2023-05-19T15:11:10.263Z,22.15
2023-05-19T15:13:36.910Z,22.27
2023-05-19T15:16:16.297Z,22.33
2023-05-19T15:18:44.653Z,22.49
2023-05-19T15:21:11.600Z,22.64
2023-05-19T15:23:38.513Z,22.76
2023-05-19T15:26:05.299Z,22.87
2023-05-19T15:28:32.468Z,22.91
2023-05-19T15:30:59.251Z,22.94
2023-05-19T15:33:25.991Z,22.99
2023-05-19T15:35:52.704Z,23.09
2023-05-19T15:38:19.793Z,23.12
2023-05-19T15:40:46.987Z,23.13
2023-05-19T15:43:14.311Z,23.24
2023-05-19T15:45:41.068Z,23.17
2023-05-19T15:48:11.760Z,23.04
2023-05-19T15:50:39.786Z,22.82
2023-05-19T15:53:08.642Z,22.85
2023-05-19T15:55:35.401Z,22.85
2023-05-19T15:58:02.168Z,22.85
2023-05-19T16:00:29.299Z,22.79
2023-05-19T16:02:56.260Z,22.88
2023-05-19T16:05:24.380Z,22.97
2023-05-19T16:07:51.819Z,23.10
2023-05-19T16:10:19.550Z,23.23
2023-05-19T16:12:49.597Z,23.28
2023-05-19T16:15:16.367Z,23.11
2023-05-19T16:17:42.970Z,23.10
2023-05-19T16:20:10.364Z,22.99
2023-05-19T16:22:37.147Z,22.89
2023-05-19T16:25:04.667Z,22.74
2023-05-19T16:27:31.793Z,22.54
2023-05-19T16:29:58.920Z,22.43
2023-05-19T16:32:26.014Z,22.23
2023-05-19T16:34:53.282Z,22.09
2023-05-19T16:37:20.401Z,21.88
2023-05-19T16:39:48.776Z,21.69
2023-05-19T16:42:15.593Z,21.71
2023-05-19T16:44:42.996Z,21.49
2023-05-19T16:47:10.442Z,21.36
2023-05-19T16:49:38.064Z,21.24
2023-05-19T16:52:05.275Z,21.18
2023-05-19T16:54:31.996Z,21.20
2023-05-19T16:56:58.724Z,21.00
2023-05-19T16:59:25.484Z,20.83
2023-05-19T17:01:52.663Z,20.77
2023-05-19T17:04:19.584Z,20.60
2023-05-19T17:06:46.811Z,20.44
2023-05-19T17:09:13.528Z,20.34
2023-05-19T17:11:43.773Z,20.28
2023-05-19T17:14:10.596Z,20.19
2023-05-19T17:16:38.100Z,20.07
2023-05-19T17:19:04.897Z,20.02
2023-05-19T17:21:32.076Z,19.89
2023-05-19T17:23:58.727Z,19.89
2023-05-19T17:26:26.931Z,19.78
2023-05-19T17:28:54.165Z,19.75
2023-05-19T17:31:21.386Z,19.70
2023-05-19T17:33:48.289Z,19.53
2023-05-19T17:36:22.985Z,19.54
2023-05-19T17:38:49.868Z,19.30
2023-05-19T17:41:18.089Z,19.15
2023-05-19T17:43:46.585Z,19.24
2023-05-19T17:46:13.727Z,19.11
2023-05-19T17:48:40.497Z,18.97
2023-05-19T17:51:07.642Z,18.94
2023-05-19T17:53:34.969Z,18.88
2023-05-19T17:56:03.870Z,18.82
2023-05-19T17:58:30.871Z,18.86
2023-05-19T18:00:58.088Z,18.71
2023-05-19T18:03:25.271Z,18.78
2023-05-19T18:05:52.397Z,18.73
2023-05-19T18:08:19.441Z,18.87
2023-05-19T18:10:46.462Z,18.63
2023-05-19T18:13:16.343Z,18.63
2023-05-19T18:15:43.011Z,18.56
2023-05-19T18:18:11.193Z,18.61
2023-05-19T18:20:39.564Z,18.47
2023-05-19T18:23:06.255Z,18.39
2023-05-19T18:25:33.660Z,18.41
2023-05-19T18:28:00.447Z,18.51
2023-05-19T18:30:27.242Z,18.44
2023-05-19T18:32:54.115Z,18.37
2023-05-19T18:35:23.309Z,18.30
2023-05-19T18:37:50.130Z,18.25
2023-05-19T18:40:16.942Z,18.26
2023-05-19T18:42:43.642Z,18.27
2023-05-19T18:45:10.547Z,18.22
2023-05-19T18:47:38.352Z,18.14
2023-05-19T18:50:06.034Z,18.01
2023-05-19T18:52:33.072Z,18.04
2023-05-19T18:55:01.359Z,17.92
2023-05-19T18:57:28.181Z,17.98
2023-05-19T18:59:54.868Z,17.81
2023-05-19T19:02:22.753Z,17.83
2023-05-19T19:04:49.594Z,17.86
2023-05-19T19:07:16.387Z,17.90
2023-05-19T19:09:43.997Z,17.81
2023-05-19T19:12:11.249Z,17.65
2023-05-19T19:14:38.685Z,17.68
2023-05-19T19:17:05.797Z,17.67
2023-05-19T19:19:32.653Z,17.68
2023-05-19T19:21:59.721Z,17.54
2023-05-19T19:24:28.635Z,17.67
2023-05-19T19:26:55.394Z,17.50
2023-05-19T19:29:24.595Z,17.42
2023-05-19T19:31:51.443Z,17.49
2023-05-19T19:34:20.016Z,17.33
2023-05-19T19:36:48.012Z,17.38
2023-05-19T19:39:14.813Z,17.29
2023-05-19T19:41:41.599Z,17.27
2023-05-19T19:44:08.410Z,17.40
2023-05-19T19:46:35.714Z,17.09
2023-05-19T19:49:02.503Z,17.11
2023-05-19T19:51:31.953Z,17.02
2023-05-19T19:53:59.258Z,16.96
2023-05-19T19:56:28.333Z,16.89
2023-05-19T19:58:57.547Z,16.83
2023-05-19T20:01:27.966Z,16.88
2023-05-19T20:03:56.125Z,16.86
2023-05-19T20:06:23.712Z,16.85
2023-05-19T20:08:50.648Z,16.80
2023-05-19T20:11:19.974Z,16.63
2023-05-19T20:13:47.781Z,16.69
2023-05-19T20:16:14.560Z,16.54
2023-05-19T20:18:41.559Z,16.45
2023-05-19T20:21:08.445Z,16.41
2023-05-19T20:23:35.469Z,16.44
2023-05-19T20:26:11.143Z,16.09
2023-05-19T20:28:41.426Z,16.02
2023-05-19T20:31:08.615Z,15.85
2023-05-19T20:33:35.911Z,15.81
2023-05-19T20:36:02.794Z,15.64
2023-05-19T20:38:30.060Z,15.67
2023-05-19T20:40:57.665Z,15.47
2023-05-19T20:43:24.606Z,15.53
2023-05-19T20:45:51.621Z,15.38
2023-05-19T20:48:18.377Z,15.46
2023-05-19T20:50:45.088Z,15.31
2023-05-19T20:53:11.832Z,15.24
2023-05-19T20:55:39.269Z,15.21
2023-05-19T20:58:06.199Z,15.08
2023-05-19T21:00:33.370Z,15.01
2023-05-19T21:03:01.034Z,14.85
2023-05-19T21:05:29.576Z,14.68
2023-05-19T21:07:56.506Z,14.55
2023-05-19T21:10:23.302Z,14.68
2023-05-19T21:12:49.969Z,14.32
2023-05-19T21:15:16.825Z,14.42
2023-05-19T21:17:43.624Z,14.33
2023-05-19T21:20:10.720Z,14.45
2023-05-19T21:22:37.320Z,14.40
2023-05-19T21:25:04.227Z,14.36
2023-05-19T21:27:32.955Z,14.35
2023-05-19T21:30:00.220Z,14.34
2023-05-19T21:32:27.436Z,14.28
2023-05-19T21:34:54.006Z,14.34
2023-05-19T21:37:21.803Z,14.29
2023-05-19T21:39:48.950Z,14.21
2023-05-19T21:42:15.633Z,14.23
2023-05-19T21:44:42.279Z,14.20
2023-05-19T21:47:08.853Z,14.17
2023-05-19T21:49:35.633Z,14.15
2023-05-19T21:52:02.205Z,14.11
2023-05-19T21:54:28.790Z,14.12
2023-05-19T21:56:55.368Z,14.07
2023-05-19T21:59:24.792Z,13.99
2023-05-19T22:01:51.497Z,13.96
2023-05-19T22:04:18.979Z,13.95
2023-05-19T22:06:45.739Z,13.87
2023-05-19T22:09:12.934Z,13.84
2023-05-19T22:11:39.795Z,13.80
2023-05-19T22:14:06.372Z,13.68
2023-05-19T22:16:33.029Z,13.56
2023-05-19T22:19:00.213Z,13.36
2023-05-19T22:21:26.878Z,13.24
2023-05-19T22:23:53.433Z,13.17
2023-05-19T22:26:19.978Z,13.10
2023-05-19T22:28:46.438Z,13.05
2023-05-19T22:31:13.037Z,13.00
2023-05-19T22:33:39.584Z,12.94
2023-05-19T22:36:06.496Z,12.88
2023-05-19T22:38:33.189Z,12.80
2023-05-19T22:40:59.837Z,12.67
2023-05-19T22:43:26.407Z,12.48
2023-05-19T22:45:52.925Z,12.44
2023-05-19T22:48:19.484Z,12.40
2023-05-19T22:50:46.216Z,12.39
2023-05-19T22:53:12.693Z,12.29
2023-05-19T22:55:39.271Z,12.21
2023-05-19T22:58:06.511Z,12.12
2023-05-19T23:00:33.153Z,12.03
2023-05-19T23:02:59.777Z,12.01
2023-05-19T23:05:26.404Z,11.89
2023-05-19T23:07:53.013Z,11.83
2023-05-19T23:10:19.688Z,11.80
2023-05-19T23:12:46.421Z,11.79
2023-05-19T23:15:12.966Z,11.88
2023-05-19T23:17:39.543Z,11.81
2023-05-19T23:20:06.598Z,11.82
2023-05-19T23:22:33.156Z,11.73
2023-05-19T23:25:01.968Z,11.67
2023-05-19T23:27:28.575Z,11.62
2023-05-19T23:29:55.048Z,11.62
2023-05-19T23:32:21.607Z,11.64
2023-05-19T23:34:48.856Z,11.49
2023-05-19T23:37:15.436Z,11.47
2023-05-19T23:39:42.009Z,11.52
2023-05-19T23:42:08.830Z,11.52
2023-05-19T23:44:35.590Z,11.46
2023-05-19T23:47:02.094Z,11.47
2023-05-19T23:49:28.731Z,11.45
2023-05-19T23:51:55.272Z,11.45
2023-05-19T23:54:21.859Z,11.30
2023-05-19T23:56:48.338Z,11.24
2023-05-19T23:59:14.902Z,11.25
